Airport View

Enter AWOS ICAO identifier for current METAR.

ex. KFNL

KRDK 300455Z AUTO 02003KT 10SM CLR M03/M04 A3019 RMK AO2

30 Oct 2020 04:55

Frequency: 119.775

Phone: 712-623-3220

Other Area AWOS: KSDA - KICL - KAIO - KCBF

TAF KOFF 300200Z 3002/3108 VRB05KT 9999 SCT250 QNH3012INS BECMG 3005/3006 15007KT 9999 SCT090 SCT250 QNH3010INS BECMG 3014/3015 34007KT 9999 FEW250 QNH3010INS WND VRB05KT AFT 3020 TX11/3020Z TNM01/3006Z